sensor_id;sensor_type;location;lat;lon;timestamp;P1;durP1;ratioP1;P2;durP2;ratioP2
32082;SDS011;18597;48.328;7.932;2022-12-18T00:02:05;61.03;;;22.47;;
32082;SDS011;18597;48.328;7.932;2022-12-18T00:04:31;54.27;;;23.40;;
32082;SDS011;18597;48.328;7.932;2022-12-18T00:06:57;43.53;;;22.40;;
32082;SDS011;18597;48.328;7.932;2022-12-18T00:09:23;54.27;;;21.70;;
32082;SDS011;18597;48.328;7.932;2022-12-18T00:11:49;55.97;;;23.53;;
32082;SDS011;18597;48.328;7.932;2022-12-18T00:14:15;54.00;;;21.57;;
32082;SDS011;18597;48.328;7.932;2022-12-18T00:16:43;58.17;;;23.77;;
32082;SDS011;18597;48.328;7.932;2022-12-18T00:19:10;72.80;;;31.42;;
32082;SDS011;18597;48.328;7.932;2022-12-18T00:21:36;80.97;;;37.70;;
32082;SDS011;18597;48.328;7.932;2022-12-18T00:24:02;58.53;;;27.20;;
32082;SDS011;18597;48.328;7.932;2022-12-18T00:26:29;49.85;;;22.15;;
32082;SDS011;18597;48.328;7.932;2022-12-18T00:28:59;43.00;;;22.08;;
32082;SDS011;18597;48.328;7.932;2022-12-18T00:31:29;53.67;;;20.40;;
32082;SDS011;18597;48.328;7.932;2022-12-18T00:33:55;49.00;;;20.17;;
32082;SDS011;18597;48.328;7.932;2022-12-18T00:36:23;47.65;;;19.58;;
32082;SDS011;18597;48.328;7.932;2022-12-18T00:38:53;44.88;;;19.45;;
32082;SDS011;18597;48.328;7.932;2022-12-18T00:41:20;42.30;;;18.83;;
32082;SDS011;18597;48.328;7.932;2022-12-18T00:44:07;45.00;;;18.33;;
32082;SDS011;18597;48.328;7.932;2022-12-18T00:46:35;43.33;;;17.08;;
32082;SDS011;18597;48.328;7.932;2022-12-18T00:49:01;42.17;;;18.77;;
32082;SDS011;18597;48.328;7.932;2022-12-18T00:51:27;38.95;;;18.05;;
32082;SDS011;18597;48.328;7.932;2022-12-18T00:53:53;36.00;;;17.30;;
32082;SDS011;18597;48.328;7.932;2022-12-18T00:56:19;39.80;;;17.67;;
32082;SDS011;18597;48.328;7.932;2022-12-18T00:58:45;41.63;;;17.20;;
32082;SDS011;18597;48.328;7.932;2022-12-18T01:01:10;39.47;;;18.50;;
32082;SDS011;18597;48.328;7.932;2022-12-18T01:03:36;40.13;;;18.13;;
32082;SDS011;18597;48.328;7.932;2022-12-18T01:06:06;43.93;;;16.67;;
32082;SDS011;18597;48.328;7.932;2022-12-18T01:08:34;42.00;;;17.05;;
32082;SDS011;18597;48.328;7.932;2022-12-18T01:11:00;38.13;;;17.08;;
32082;SDS011;18597;48.328;7.932;2022-12-18T01:13:33;33.13;;;16.38;;
32082;SDS011;18597;48.328;7.932;2022-12-18T01:15:59;36.57;;;16.30;;
32082;SDS011;18597;48.328;7.932;2022-12-18T01:18:24;46.13;;;19.10;;
32082;SDS011;18597;48.328;7.932;2022-12-18T01:20:50;36.33;;;15.80;;
32082;SDS011;18597;48.328;7.932;2022-12-18T01:23:16;38.63;;;16.90;;
32082;SDS011;18597;48.328;7.932;2022-12-18T01:25:42;37.23;;;17.47;;
32082;SDS011;18597;48.328;7.932;2022-12-18T01:28:07;34.17;;;18.13;;
32082;SDS011;18597;48.328;7.932;2022-12-18T01:30:33;34.37;;;16.00;;
32082;SDS011;18597;48.328;7.932;2022-12-18T01:32:59;37.93;;;17.63;;
32082;SDS011;18597;48.328;7.932;2022-12-18T01:35:25;38.90;;;17.83;;
32082;SDS011;18597;48.328;7.932;2022-12-18T01:37:53;46.17;;;18.07;;
32082;SDS011;18597;48.328;7.932;2022-12-18T01:40:20;45.90;;;18.63;;
32082;SDS011;18597;48.328;7.932;2022-12-18T01:42:53;43.07;;;17.27;;
32082;SDS011;18597;48.328;7.932;2022-12-18T01:47:55;38.45;;;17.50;;
32082;SDS011;18597;48.328;7.932;2022-12-18T01:50:34;36.83;;;16.25;;
32082;SDS011;18597;48.328;7.932;2022-12-18T01:53:10;38.17;;;16.90;;
32082;SDS011;18597;48.328;7.932;2022-12-18T01:55:43;40.00;;;17.02;;
32082;SDS011;18597;48.328;7.932;2022-12-18T01:58:14;31.77;;;15.75;;
32082;SDS011;18597;48.328;7.932;2022-12-18T02:00:41;46.00;;;19.27;;
32082;SDS011;18597;48.328;7.932;2022-12-18T02:03:07;63.27;;;23.60;;
32082;SDS011;18597;48.328;7.932;2022-12-18T02:05:45;54.10;;;22.67;;
32082;SDS011;18597;48.328;7.932;2022-12-18T02:08:28;57.22;;;22.90;;
32082;SDS011;18597;48.328;7.932;2022-12-18T02:11:11;47.00;;;20.23;;
32082;SDS011;18597;48.328;7.932;2022-12-18T02:17:07;49.03;;;20.65;;
32082;SDS011;18597;48.328;7.932;2022-12-18T02:19:48;46.20;;;18.52;;
32082;SDS011;18597;48.328;7.932;2022-12-18T02:28:32;45.88;;;19.98;;
32082;SDS011;18597;48.328;7.932;2022-12-18T02:31:06;55.22;;;20.85;;
32082;SDS011;18597;48.328;7.932;2022-12-18T02:33:47;45.25;;;20.40;;
32082;SDS011;18597;48.328;7.932;2022-12-18T02:36:21;53.10;;;21.95;;
32082;SDS011;18597;48.328;7.932;2022-12-18T02:38:48;45.08;;;19.23;;
32082;SDS011;18597;48.328;7.932;2022-12-18T02:41:17;46.03;;;19.38;;
32082;SDS011;18597;48.328;7.932;2022-12-18T02:43:46;48.45;;;19.95;;
32082;SDS011;18597;48.328;7.932;2022-12-18T02:46:24;48.80;;;22.10;;
32082;SDS011;18597;48.328;7.932;2022-12-18T02:57:33;41.92;;;19.65;;
32082;SDS011;18597;48.328;7.932;2022-12-18T03:00:28;44.13;;;17.52;;
32082;SDS011;18597;48.328;7.932;2022-12-18T03:03:55;31.45;;;16.00;;
32082;SDS011;18597;48.328;7.932;2022-12-18T03:06:16;42.92;;;17.83;;
32082;SDS011;18597;48.328;7.932;2022-12-18T03:08:56;47.75;;;18.85;;
32082;SDS011;18597;48.328;7.932;2022-12-18T03:11:28;51.67;;;20.80;;
32082;SDS011;18597;48.328;7.932;2022-12-18T03:14:18;46.55;;;20.27;;
32082;SDS011;18597;48.328;7.932;2022-12-18T03:16:49;35.53;;;18.08;;
32082;SDS011;18597;48.328;7.932;2022-12-18T03:19:19;39.05;;;19.83;;
32082;SDS011;18597;48.328;7.932;2022-12-18T03:21:51;41.75;;;18.45;;
32082;SDS011;18597;48.328;7.932;2022-12-18T03:24:22;52.63;;;18.05;;
32082;SDS011;18597;48.328;7.932;2022-12-18T03:26:52;50.85;;;19.20;;
32082;SDS011;18597;48.328;7.932;2022-12-18T03:29:33;47.42;;;19.75;;
32082;SDS011;18597;48.328;7.932;2022-12-18T03:32:05;43.92;;;20.08;;
32082;SDS011;18597;48.328;7.932;2022-12-18T03:34:37;48.65;;;19.55;;
32082;SDS011;18597;48.328;7.932;2022-12-18T03:37:06;58.88;;;20.42;;
32082;SDS011;18597;48.328;7.932;2022-12-18T03:39:33;50.78;;;19.25;;
32082;SDS011;18597;48.328;7.932;2022-12-18T03:42:08;51.85;;;19.50;;
32082;SDS011;18597;48.328;7.932;2022-12-18T03:44:56;47.22;;;19.88;;
32082;SDS011;18597;48.328;7.932;2022-12-18T03:47:39;48.25;;;21.27;;
32082;SDS011;18597;48.328;7.932;2022-12-18T03:50:46;49.65;;;20.65;;
32082;SDS011;18597;48.328;7.932;2022-12-18T03:56:14;58.63;;;23.90;;
32082;SDS011;18597;48.328;7.932;2022-12-18T03:58:42;48.90;;;20.30;;
32082;SDS011;18597;48.328;7.932;2022-12-18T04:01:10;48.28;;;19.63;;
32082;SDS011;18597;48.328;7.932;2022-12-18T04:03:39;49.80;;;20.38;;
32082;SDS011;18597;48.328;7.932;2022-12-18T04:06:07;40.35;;;17.50;;
32082;SDS011;18597;48.328;7.932;2022-12-18T04:08:34;51.55;;;20.67;;
32082;SDS011;18597;48.328;7.932;2022-12-18T04:11:01;47.92;;;19.58;;
32082;SDS011;18597;48.328;7.932;2022-12-18T04:13:28;40.70;;;17.45;;
32082;SDS011;18597;48.328;7.932;2022-12-18T04:15:59;38.42;;;18.42;;
32082;SDS011;18597;48.328;7.932;2022-12-18T04:18:25;40.80;;;19.20;;
32082;SDS011;18597;48.328;7.932;2022-12-18T04:20:51;47.40;;;20.10;;
32082;SDS011;18597;48.328;7.932;2022-12-18T04:23:16;40.53;;;17.83;;
32082;SDS011;18597;48.328;7.932;2022-12-18T04:25:42;44.10;;;18.67;;
32082;SDS011;18597;48.328;7.932;2022-12-18T04:28:08;44.27;;;18.77;;
32082;SDS011;18597;48.328;7.932;2022-12-18T04:30:34;50.30;;;19.10;;
32082;SDS011;18597;48.328;7.932;2022-12-18T04:33:00;45.17;;;19.40;;
32082;SDS011;18597;48.328;7.932;2022-12-18T04:35:26;44.27;;;18.33;;
32082;SDS011;18597;48.328;7.932;2022-12-18T04:37:52;51.22;;;18.58;;
32082;SDS011;18597;48.328;7.932;2022-12-18T04:40:17;41.67;;;16.87;;
32082;SDS011;18597;48.328;7.932;2022-12-18T04:42:43;47.40;;;17.60;;
32082;SDS011;18597;48.328;7.932;2022-12-18T04:45:09;35.40;;;16.40;;
32082;SDS011;18597;48.328;7.932;2022-12-18T04:47:35;42.60;;;18.00;;
32082;SDS011;18597;48.328;7.932;2022-12-18T04:50:01;42.17;;;17.60;;
32082;SDS011;18597;48.328;7.932;2022-12-18T04:52:27;40.35;;;17.30;;
32082;SDS011;18597;48.328;7.932;2022-12-18T04:54:53;40.13;;;16.43;;
32082;SDS011;18597;48.328;7.932;2022-12-18T04:57:19;47.27;;;17.60;;
32082;SDS011;18597;48.328;7.932;2022-12-18T04:59:44;32.63;;;17.77;;
32082;SDS011;18597;48.328;7.932;2022-12-18T05:02:10;51.65;;;23.92;;
32082;SDS011;18597;48.328;7.932;2022-12-18T05:04:36;52.93;;;19.90;;
32082;SDS011;18597;48.328;7.932;2022-12-18T05:07:02;33.57;;;17.23;;
32082;SDS011;18597;48.328;7.932;2022-12-18T05:09:28;52.80;;;17.10;;
32082;SDS011;18597;48.328;7.932;2022-12-18T05:11:53;38.03;;;16.63;;
32082;SDS011;18597;48.328;7.932;2022-12-18T05:14:19;38.77;;;17.40;;
32082;SDS011;18597;48.328;7.932;2022-12-18T05:16:45;35.00;;;16.50;;
32082;SDS011;18597;48.328;7.932;2022-12-18T05:19:11;39.80;;;17.37;;
32082;SDS011;18597;48.328;7.932;2022-12-18T05:21:37;40.97;;;18.50;;
32082;SDS011;18597;48.328;7.932;2022-12-18T05:24:02;33.27;;;14.90;;
32082;SDS011;18597;48.328;7.932;2022-12-18T05:26:29;34.17;;;15.25;;
32082;SDS011;18597;48.328;7.932;2022-12-18T05:28:55;36.80;;;15.95;;
32082;SDS011;18597;48.328;7.932;2022-12-18T05:31:20;39.07;;;16.53;;
32082;SDS011;18597;48.328;7.932;2022-12-18T05:33:46;36.60;;;15.00;;
32082;SDS011;18597;48.328;7.932;2022-12-18T05:36:12;38.73;;;18.63;;
32082;SDS011;18597;48.328;7.932;2022-12-18T05:38:38;32.77;;;16.03;;
32082;SDS011;18597;48.328;7.932;2022-12-18T05:41:04;49.85;;;19.00;;
32082;SDS011;18597;48.328;7.932;2022-12-18T05:43:33;39.17;;;17.23;;
32082;SDS011;18597;48.328;7.932;2022-12-18T05:46:03;31.83;;;16.15;;
32082;SDS011;18597;48.328;7.932;2022-12-18T05:48:31;50.72;;;16.33;;
32082;SDS011;18597;48.328;7.932;2022-12-18T05:51:02;36.03;;;14.60;;
32082;SDS011;18597;48.328;7.932;2022-12-18T05:53:34;35.15;;;16.52;;
32082;SDS011;18597;48.328;7.932;2022-12-18T05:56:03;26.67;;;15.23;;
32082;SDS011;18597;48.328;7.932;2022-12-18T05:58:31;32.78;;;14.75;;
32082;SDS011;18597;48.328;7.932;2022-12-18T06:01:05;39.22;;;16.63;;
32082;SDS011;18597;48.328;7.932;2022-12-18T06:03:39;31.45;;;15.68;;
32082;SDS011;18597;48.328;7.932;2022-12-18T06:06:12;30.30;;;15.20;;
32082;SDS011;18597;48.328;7.932;2022-12-18T06:08:43;40.10;;;16.02;;
32082;SDS011;18597;48.328;7.932;2022-12-18T06:11:09;37.72;;;15.93;;
32082;SDS011;18597;48.328;7.932;2022-12-18T06:13:35;32.78;;;15.25;;
32082;SDS011;18597;48.328;7.932;2022-12-18T06:16:03;28.73;;;14.80;;
32082;SDS011;18597;48.328;7.932;2022-12-18T06:18:30;36.17;;;16.38;;
32082;SDS011;18597;48.328;7.932;2022-12-18T06:20:56;31.23;;;14.75;;
32082;SDS011;18597;48.328;7.932;2022-12-18T06:23:24;33.80;;;16.23;;
32082;SDS011;18597;48.328;7.932;2022-12-18T06:25:50;35.17;;;15.50;;
32082;SDS011;18597;48.328;7.932;2022-12-18T06:28:16;32.38;;;16.02;;
32082;SDS011;18597;48.328;7.932;2022-12-18T06:30:43;31.75;;;15.05;;
32082;SDS011;18597;48.328;7.932;2022-12-18T06:33:10;31.08;;;13.93;;
32082;SDS011;18597;48.328;7.932;2022-12-18T06:35:36;41.23;;;17.87;;
32082;SDS011;18597;48.328;7.932;2022-12-18T06:38:02;32.23;;;15.90;;
32082;SDS011;18597;48.328;7.932;2022-12-18T06:40:28;24.50;;;14.05;;
32082;SDS011;18597;48.328;7.932;2022-12-18T06:42:54;27.65;;;13.35;;
32082;SDS011;18597;48.328;7.932;2022-12-18T06:45:20;29.53;;;11.47;;
32082;SDS011;18597;48.328;7.932;2022-12-18T06:47:46;38.97;;;15.35;;
32082;SDS011;18597;48.328;7.932;2022-12-18T06:50:12;26.67;;;13.73;;
32082;SDS011;18597;48.328;7.932;2022-12-18T06:52:38;42.27;;;16.53;;
32082;SDS011;18597;48.328;7.932;2022-12-18T06:55:06;36.20;;;14.00;;
32082;SDS011;18597;48.328;7.932;2022-12-18T06:57:33;34.53;;;13.95;;
32082;SDS011;18597;48.328;7.932;2022-12-18T06:59:59;34.05;;;14.48;;
32082;SDS011;18597;48.328;7.932;2022-12-18T07:02:25;32.23;;;14.00;;
32082;SDS011;18597;48.328;7.932;2022-12-18T07:04:51;30.27;;;16.30;;
32082;SDS011;18597;48.328;7.932;2022-12-18T07:07:17;26.80;;;16.00;;
32082;SDS011;18597;48.328;7.932;2022-12-18T07:09:43;33.65;;;16.98;;
32082;SDS011;18597;48.328;7.932;2022-12-18T07:12:08;32.70;;;16.70;;
32082;SDS011;18597;48.328;7.932;2022-12-18T07:14:34;40.80;;;16.40;;
32082;SDS011;18597;48.328;7.932;2022-12-18T07:17:00;44.83;;;18.70;;
32082;SDS011;18597;48.328;7.932;2022-12-18T07:19:26;44.90;;;19.17;;
32082;SDS011;18597;48.328;7.932;2022-12-18T07:21:51;37.07;;;17.10;;
32082;SDS011;18597;48.328;7.932;2022-12-18T07:24:17;28.47;;;16.47;;
32082;SDS011;18597;48.328;7.932;2022-12-18T07:26:45;36.30;;;19.10;;
32082;SDS011;18597;48.328;7.932;2022-12-18T07:29:11;36.63;;;18.55;;
32082;SDS011;18597;48.328;7.932;2022-12-18T07:31:38;35.67;;;16.23;;
32082;SDS011;18597;48.328;7.932;2022-12-18T07:34:04;46.10;;;17.40;;
32082;SDS011;18597;48.328;7.932;2022-12-18T07:36:30;40.17;;;19.13;;
32082;SDS011;18597;48.328;7.932;2022-12-18T07:38:55;37.63;;;17.13;;
32082;SDS011;18597;48.328;7.932;2022-12-18T07:41:21;46.30;;;19.40;;
32082;SDS011;18597;48.328;7.932;2022-12-18T07:43:47;47.47;;;19.77;;
32082;SDS011;18597;48.328;7.932;2022-12-18T07:46:14;36.57;;;18.60;;
32082;SDS011;18597;48.328;7.932;2022-12-18T07:48:42;49.10;;;22.05;;
32082;SDS011;18597;48.328;7.932;2022-12-18T07:51:08;33.70;;;18.20;;
32082;SDS011;18597;48.328;7.932;2022-12-18T07:53:35;48.50;;;20.03;;
32082;SDS011;18597;48.328;7.932;2022-12-18T07:56:03;32.70;;;15.38;;
32082;SDS011;18597;48.328;7.932;2022-12-18T07:58:33;33.22;;;15.93;;
32082;SDS011;18597;48.328;7.932;2022-12-18T08:01:04;32.35;;;16.58;;
32082;SDS011;18597;48.328;7.932;2022-12-18T08:03:32;28.75;;;15.50;;
32082;SDS011;18597;48.328;7.932;2022-12-18T08:06:00;31.92;;;16.85;;
32082;SDS011;18597;48.328;7.932;2022-12-18T08:08:28;42.17;;;17.65;;
32082;SDS011;18597;48.328;7.932;2022-12-18T08:10:55;43.78;;;21.42;;
32082;SDS011;18597;48.328;7.932;2022-12-18T08:13:22;37.08;;;17.90;;
32082;SDS011;18597;48.328;7.932;2022-12-18T08:16:04;36.00;;;18.00;;
32082;SDS011;18597;48.328;7.932;2022-12-18T08:18:32;45.53;;;18.85;;
32082;SDS011;18597;48.328;7.932;2022-12-18T08:21:15;39.85;;;19.50;;
32082;SDS011;18597;48.328;7.932;2022-12-18T08:23:48;46.72;;;21.98;;
32082;SDS011;18597;48.328;7.932;2022-12-18T08:26:16;51.05;;;21.38;;
32082;SDS011;18597;48.328;7.932;2022-12-18T08:28:42;46.65;;;22.08;;
32082;SDS011;18597;48.328;7.932;2022-12-18T08:31:08;51.05;;;23.33;;
32082;SDS011;18597;48.328;7.932;2022-12-18T08:33:34;48.10;;;24.27;;
32082;SDS011;18597;48.328;7.932;2022-12-18T08:36:03;49.72;;;22.60;;
32082;SDS011;18597;48.328;7.932;2022-12-18T08:38:31;63.53;;;22.02;;
32082;SDS011;18597;48.328;7.932;2022-12-18T08:40:59;57.95;;;22.67;;
32082;SDS011;18597;48.328;7.932;2022-12-18T08:43:26;49.35;;;22.52;;
32082;SDS011;18597;48.328;7.932;2022-12-18T08:46:12;42.20;;;22.58;;
32082;SDS011;18597;48.328;7.932;2022-12-18T08:48:38;51.25;;;23.35;;
32082;SDS011;18597;48.328;7.932;2022-12-18T08:51:03;46.27;;;20.90;;
32082;SDS011;18597;48.328;7.932;2022-12-18T08:53:29;36.20;;;16.83;;
32082;SDS011;18597;48.328;7.932;2022-12-18T08:55:56;40.20;;;18.87;;
32082;SDS011;18597;48.328;7.932;2022-12-18T08:58:22;37.95;;;17.25;;
32082;SDS011;18597;48.328;7.932;2022-12-18T09:00:48;42.65;;;21.40;;
32082;SDS011;18597;48.328;7.932;2022-12-18T09:03:15;43.60;;;18.50;;
32082;SDS011;18597;48.328;7.932;2022-12-18T09:05:45;40.05;;;19.02;;
32082;SDS011;18597;48.328;7.932;2022-12-18T09:08:11;37.28;;;18.63;;
32082;SDS011;18597;48.328;7.932;2022-12-18T09:10:41;43.73;;;22.27;;
32082;SDS011;18597;48.328;7.932;2022-12-18T09:13:10;49.45;;;19.85;;
32082;SDS011;18597;48.328;7.932;2022-12-18T09:15:40;43.53;;;19.63;;
32082;SDS011;18597;48.328;7.932;2022-12-18T09:18:10;40.13;;;19.50;;
32082;SDS011;18597;48.328;7.932;2022-12-18T09:20:37;43.22;;;21.40;;
32082;SDS011;18597;48.328;7.932;2022-12-18T09:23:04;45.88;;;22.63;;
32082;SDS011;18597;48.328;7.932;2022-12-18T09:25:30;48.10;;;22.95;;
32082;SDS011;18597;48.328;7.932;2022-12-18T09:27:59;37.97;;;21.50;;
32082;SDS011;18597;48.328;7.932;2022-12-18T09:30:25;43.63;;;20.30;;
32082;SDS011;18597;48.328;7.932;2022-12-18T09:32:51;46.22;;;22.90;;
32082;SDS011;18597;48.328;7.932;2022-12-18T09:35:18;41.92;;;18.50;;
32082;SDS011;18597;48.328;7.932;2022-12-18T09:37:44;45.23;;;21.77;;
32082;SDS011;18597;48.328;7.932;2022-12-18T09:40:14;44.90;;;23.67;;
32082;SDS011;18597;48.328;7.932;2022-12-18T09:42:45;51.72;;;24.27;;
32082;SDS011;18597;48.328;7.932;2022-12-18T09:45:17;45.70;;;23.88;;
32082;SDS011;18597;48.328;7.932;2022-12-18T09:47:43;42.55;;;21.73;;
32082;SDS011;18597;48.328;7.932;2022-12-18T09:50:42;46.58;;;22.85;;
32082;SDS011;18597;48.328;7.932;2022-12-18T09:53:05;49.95;;;23.38;;
32082;SDS011;18597;48.328;7.932;2022-12-18T09:55:40;49.50;;;21.83;;
32082;SDS011;18597;48.328;7.932;2022-12-18T09:58:13;44.42;;;20.58;;
32082;SDS011;18597;48.328;7.932;2022-12-18T10:00:51;40.42;;;20.45;;
32082;SDS011;18597;48.328;7.932;2022-12-18T10:03:18;44.45;;;22.63;;
32082;SDS011;18597;48.328;7.932;2022-12-18T10:05:48;38.85;;;20.25;;
32082;SDS011;18597;48.328;7.932;2022-12-18T10:09:00;49.72;;;24.45;;
32082;SDS011;18597;48.328;7.932;2022-12-18T10:11:53;54.90;;;26.95;;
32082;SDS011;18597;48.328;7.932;2022-12-18T10:20:48;44.17;;;19.65;;
32082;SDS011;18597;48.328;7.932;2022-12-18T10:26:17;45.55;;;20.30;;
32082;SDS011;18597;48.328;7.932;2022-12-18T10:28:43;46.43;;;22.43;;
32082;SDS011;18597;48.328;7.932;2022-12-18T10:31:18;34.40;;;19.75;;
32082;SDS011;18597;48.328;7.932;2022-12-18T10:33:46;40.22;;;19.55;;
32082;SDS011;18597;48.328;7.932;2022-12-18T10:36:12;46.73;;;24.20;;
32082;SDS011;18597;48.328;7.932;2022-12-18T10:38:39;39.53;;;22.90;;
32082;SDS011;18597;48.328;7.932;2022-12-18T10:41:06;43.45;;;23.92;;
32082;SDS011;18597;48.328;7.932;2022-12-18T10:44:23;34.70;;;20.60;;
32082;SDS011;18597;48.328;7.932;2022-12-18T10:46:48;61.00;;;24.33;;
32082;SDS011;18597;48.328;7.932;2022-12-18T10:49:18;41.50;;;22.52;;
32082;SDS011;18597;48.328;7.932;2022-12-18T10:51:51;43.50;;;23.60;;
32082;SDS011;18597;48.328;7.932;2022-12-18T10:54:36;51.15;;;26.35;;
32082;SDS011;18597;48.328;7.932;2022-12-18T10:57:29;47.53;;;26.83;;
32082;SDS011;18597;48.328;7.932;2022-12-18T10:59:57;46.65;;;23.38;;
32082;SDS011;18597;48.328;7.932;2022-12-18T11:02:28;46.15;;;23.65;;
32082;SDS011;18597;48.328;7.932;2022-12-18T11:05:01;53.08;;;23.98;;
32082;SDS011;18597;48.328;7.932;2022-12-18T11:07:48;36.28;;;21.10;;
32082;SDS011;18597;48.328;7.932;2022-12-18T11:10:16;40.92;;;18.90;;
32082;SDS011;18597;48.328;7.932;2022-12-18T11:12:45;34.60;;;19.50;;
32082;SDS011;18597;48.328;7.932;2022-12-18T11:15:16;36.17;;;19.70;;
32082;SDS011;18597;48.328;7.932;2022-12-18T11:17:48;36.65;;;19.73;;
32082;SDS011;18597;48.328;7.932;2022-12-18T11:20:20;36.80;;;20.00;;
32082;SDS011;18597;48.328;7.932;2022-12-18T11:23:04;35.23;;;18.93;;
32082;SDS011;18597;48.328;7.932;2022-12-18T11:25:37;41.63;;;20.53;;
32082;SDS011;18597;48.328;7.932;2022-12-18T11:28:04;42.47;;;21.07;;
32082;SDS011;18597;48.328;7.932;2022-12-18T11:31:11;42.67;;;18.27;;
32082;SDS011;18597;48.328;7.932;2022-12-18T11:33:58;42.17;;;19.97;;
32082;SDS011;18597;48.328;7.932;2022-12-18T11:36:39;46.57;;;25.30;;
32082;SDS011;18597;48.328;7.932;2022-12-18T11:39:15;50.77;;;24.50;;
32082;SDS011;18597;48.328;7.932;2022-12-18T11:42:09;39.93;;;20.37;;
32082;SDS011;18597;48.328;7.932;2022-12-18T11:45:02;40.73;;;22.00;;
32082;SDS011;18597;48.328;7.932;2022-12-18T11:48:03;36.07;;;18.60;;
32082;SDS011;18597;48.328;7.932;2022-12-18T11:50:51;41.77;;;20.20;;
32082;SDS011;18597;48.328;7.932;2022-12-18T11:53:20;41.37;;;20.13;;
32082;SDS011;18597;48.328;7.932;2022-12-18T12:01:59;48.60;;;23.73;;
32082;SDS011;18597;48.328;7.932;2022-12-18T12:07:36;52.93;;;24.87;;
32082;SDS011;18597;48.328;7.932;2022-12-18T12:10:22;44.37;;;22.63;;
32082;SDS011;18597;48.328;7.932;2022-12-18T12:13:20;45.17;;;22.40;;
32082;SDS011;18597;48.328;7.932;2022-12-18T12:16:18;36.53;;;18.97;;
32082;SDS011;18597;48.328;7.932;2022-12-18T12:22:23;42.67;;;21.23;;
32082;SDS011;18597;48.328;7.932;2022-12-18T12:25:13;55.37;;;26.90;;
32082;SDS011;18597;48.328;7.932;2022-12-18T12:28:03;43.63;;;21.50;;
32082;SDS011;18597;48.328;7.932;2022-12-18T12:34:22;40.67;;;21.87;;
32082;SDS011;18597;48.328;7.932;2022-12-18T12:37:38;49.40;;;25.20;;
32082;SDS011;18597;48.328;7.932;2022-12-18T12:40:32;49.37;;;22.47;;
32082;SDS011;18597;48.328;7.932;2022-12-18T12:43:10;48.87;;;22.93;;
32082;SDS011;18597;48.328;7.932;2022-12-18T12:45:55;42.47;;;23.13;;
32082;SDS011;18597;48.328;7.932;2022-12-18T12:51:28;57.57;;;27.07;;
32082;SDS011;18597;48.328;7.932;2022-12-18T12:53:59;47.23;;;25.67;;
32082;SDS011;18597;48.328;7.932;2022-12-18T12:56:32;53.27;;;25.60;;
32082;SDS011;18597;48.328;7.932;2022-12-18T13:00:13;50.97;;;25.30;;
32082;SDS011;18597;48.328;7.932;2022-12-18T13:05:45;48.17;;;25.50;;
32082;SDS011;18597;48.328;7.932;2022-12-18T13:08:23;53.50;;;26.97;;
32082;SDS011;18597;48.328;7.932;2022-12-18T13:10:53;53.23;;;25.77;;
32082;SDS011;18597;48.328;7.932;2022-12-18T13:13:50;58.90;;;27.37;;
32082;SDS011;18597;48.328;7.932;2022-12-18T13:16:20;60.60;;;26.13;;
32082;SDS011;18597;48.328;7.932;2022-12-18T13:18:50;55.50;;;26.83;;
32082;SDS011;18597;48.328;7.932;2022-12-18T13:21:27;62.30;;;28.90;;
32082;SDS011;18597;48.328;7.932;2022-12-18T13:23:57;54.53;;;28.27;;
32082;SDS011;18597;48.328;7.932;2022-12-18T13:26:47;50.67;;;24.40;;
32082;SDS011;18597;48.328;7.932;2022-12-18T13:29:14;57.53;;;26.53;;
32082;SDS011;18597;48.328;7.932;2022-12-18T13:32:19;65.73;;;31.67;;
32082;SDS011;18597;48.328;7.932;2022-12-18T13:34:49;53.63;;;29.07;;
32082;SDS011;18597;48.328;7.932;2022-12-18T13:38:18;60.20;;;27.77;;
32082;SDS011;18597;48.328;7.932;2022-12-18T13:40:58;57.07;;;29.23;;
32082;SDS011;18597;48.328;7.932;2022-12-18T13:43:49;64.10;;;29.67;;
32082;SDS011;18597;48.328;7.932;2022-12-18T13:46:23;62.47;;;31.80;;
32082;SDS011;18597;48.328;7.932;2022-12-18T13:51:47;63.87;;;33.80;;
32082;SDS011;18597;48.328;7.932;2022-12-18T13:54:18;67.07;;;30.37;;
32082;SDS011;18597;48.328;7.932;2022-12-18T13:57:00;72.60;;;33.83;;
32082;SDS011;18597;48.328;7.932;2022-12-18T13:59:42;67.17;;;35.17;;
32082;SDS011;18597;48.328;7.932;2022-12-18T14:02:16;65.93;;;32.90;;
32082;SDS011;18597;48.328;7.932;2022-12-18T14:04:47;66.13;;;33.27;;
32082;SDS011;18597;48.328;7.932;2022-12-18T14:07:18;73.30;;;33.87;;
32082;SDS011;18597;48.328;7.932;2022-12-18T14:09:49;66.73;;;31.90;;
32082;SDS011;18597;48.328;7.932;2022-12-18T14:12:24;73.50;;;36.17;;
32082;SDS011;18597;48.328;7.932;2022-12-18T14:15:33;75.30;;;32.33;;
32082;SDS011;18597;48.328;7.932;2022-12-18T14:18:16;61.37;;;30.97;;
32082;SDS011;18597;48.328;7.932;2022-12-18T14:21:35;99.73;;;43.67;;
32082;SDS011;18597;48.328;7.932;2022-12-18T14:24:04;80.13;;;36.20;;
32082;SDS011;18597;48.328;7.932;2022-12-18T14:26:38;70.90;;;33.60;;
32082;SDS011;18597;48.328;7.932;2022-12-18T14:29:18;61.67;;;30.60;;
32082;SDS011;18597;48.328;7.932;2022-12-18T14:32:25;73.83;;;32.40;;
32082;SDS011;18597;48.328;7.932;2022-12-18T14:34:44;72.00;;;34.50;;
32082;SDS011;18597;48.328;7.932;2022-12-18T14:37:15;77.90;;;33.10;;
32082;SDS011;18597;48.328;7.932;2022-12-18T14:39:55;70.70;;;32.70;;
32082;SDS011;18597;48.328;7.932;2022-12-18T14:42:26;75.30;;;35.20;;
32082;SDS011;18597;48.328;7.932;2022-12-18T14:48:00;73.00;;;33.67;;
32082;SDS011;18597;48.328;7.932;2022-12-18T14:50:33;82.33;;;36.77;;
32082;SDS011;18597;48.328;7.932;2022-12-18T14:52:58;80.53;;;33.80;;
32082;SDS011;18597;48.328;7.932;2022-12-18T14:55:24;88.53;;;37.17;;
32082;SDS011;18597;48.328;7.932;2022-12-18T14:57:51;68.57;;;32.40;;
32082;SDS011;18597;48.328;7.932;2022-12-18T15:00:21;78.97;;;36.60;;
32082;SDS011;18597;48.328;7.932;2022-12-18T15:02:50;94.07;;;39.47;;
32082;SDS011;18597;48.328;7.932;2022-12-18T15:05:29;106.37;;;44.37;;
32082;SDS011;18597;48.328;7.932;2022-12-18T15:07:57;89.23;;;39.80;;
32082;SDS011;18597;48.328;7.932;2022-12-18T15:10:26;94.63;;;41.30;;
32082;SDS011;18597;48.328;7.932;2022-12-18T15:20:45;79.33;;;32.63;;
32082;SDS011;18597;48.328;7.932;2022-12-18T15:23:23;81.80;;;35.43;;
32082;SDS011;18597;48.328;7.932;2022-12-18T15:26:02;85.37;;;35.60;;
32082;SDS011;18597;48.328;7.932;2022-12-18T15:28:34;88.70;;;34.63;;
32082;SDS011;18597;48.328;7.932;2022-12-18T15:33:44;72.57;;;33.77;;
32082;SDS011;18597;48.328;7.932;2022-12-18T15:36:30;92.90;;;42.08;;
32082;SDS011;18597;48.328;7.932;2022-12-18T15:38:56;92.07;;;37.00;;
32082;SDS011;18597;48.328;7.932;2022-12-18T15:41:23;86.23;;;38.73;;
32082;SDS011;18597;48.328;7.932;2022-12-18T15:43:49;73.50;;;31.93;;
32082;SDS011;18597;48.328;7.932;2022-12-18T15:46:18;89.22;;;35.97;;
32082;SDS011;18597;48.328;7.932;2022-12-18T15:48:48;74.70;;;35.80;;
32082;SDS011;18597;48.328;7.932;2022-12-18T15:51:20;79.68;;;34.95;;
32082;SDS011;18597;48.328;7.932;2022-12-18T15:53:53;90.00;;;36.03;;
32082;SDS011;18597;48.328;7.932;2022-12-18T15:56:23;74.97;;;36.53;;
32082;SDS011;18597;48.328;7.932;2022-12-18T15:59:13;83.47;;;37.20;;
32082;SDS011;18597;48.328;7.932;2022-12-18T16:01:42;81.38;;;37.28;;
32082;SDS011;18597;48.328;7.932;2022-12-18T16:04:12;90.37;;;40.57;;